Time;durP1;ratioP1;P1;durP2;ratioP2;P2;SDS_P1;SDS_P2;PMS_P1;PMS_P2;Temp;Humidity;BMP_temperature;BMP_pressure;BME280_temperature;BME280_humidity;BME280_pressure;Samples;Min_cycle;Max_cycle;Signal;HPM_P1;HPM_P2
2023/08/29 00:00:01;;;;;;;0.60;0.50;;;;;;;15.19;82.78;100206.56;10415972;28;20540;-83
2023/08/29 00:05:03;;;;;;;0.88;0.60;;;;;;;15.23;81.49;100202.00;10425000;28;20049;-84
2023/08/29 00:10:06;;;;;;;1.42;0.50;;;;;;;15.38;80.66;100209.84;10435239;28;20052;-82
2023/08/29 00:15:12;;;;;;;0.70;0.60;;;;;;;15.44;80.45;100206.91;10440472;28;20075;-81
2023/08/29 00:20:14;;;;;;;0.57;0.57;;;;;;;15.16;81.59;100223.81;10447022;28;20038;-79
2023/08/29 00:25:17;;;;;;;0.57;0.57;;;;;;;15.26;81.30;100222.66;10448516;28;20037;-81
2023/08/29 00:30:19;;;;;;;1.48;0.40;;;;;;;15.23;80.73;100223.31;10447924;28;20049;-82
2023/08/29 00:35:21;;;;;;;0.47;0.47;;;;;;;14.79;81.93;100233.44;10432684;28;20049;-80
2023/08/29 00:40:31;;;;;;;0.40;0.40;;;;;;;14.99;81.47;100209.94;10438647;28;20037;-81
2023/08/29 00:45:35;;;;;;;2.03;0.70;;;;;;;15.04;80.87;100218.06;10410798;28;20499;-82
2023/08/29 00:50:38;;;;;;;1.77;0.57;;;;;;;14.92;81.71;100220.63;10427064;28;20041;-79
2023/08/29 00:55:42;;;;;;;0.60;0.50;;;;;;;14.89;81.22;100232.31;10456129;28;20068;-81
2023/08/29 01:00:45;;;;;;;0.65;0.43;;;;;;;14.71;82.52;100235.03;10397788;28;20179;-80
2023/08/29 01:05:48;;;;;;;0.50;0.50;;;;;;;14.90;82.49;100236.72;10444410;28;20510;-81
2023/08/29 01:10:56;;;;;;;1.60;0.63;;;;;;;14.69;83.23;100247.53;10439233;28;20052;-82
2023/08/29 01:16:01;;;;;;;0.55;0.55;;;;;;;14.69;83.30;100253.84;10427648;28;20046;-82
2023/08/29 01:21:38;;;;;;;0.68;0.40;;;;;;;14.61;84.01;100251.88;10420571;28;20053;-82
2023/08/29 01:26:40;;;;;;;0.73;0.47;;;;;;;14.63;83.93;100248.81;10414633;28;20545;-82
2023/08/29 01:31:43;;;;;;;0.50;0.50;;;;;;;14.83;82.53;100258.47;10416022;28;20089;-82
2023/08/29 01:36:47;;;;;;;0.75;0.55;;;;;;;14.47;84.60;100263.00;10425146;28;20052;-79
2023/08/29 01:41:49;;;;;;;1.85;0.80;;;;;;;14.60;83.55;100269.59;10436171;28;20037;-79
2023/08/29 01:46:52;;;;;;;0.60;0.47;;;;;;;14.72;83.39;100280.03;10410988;28;20045;-80
2023/08/29 01:51:55;;;;;;;0.43;0.43;;;;;;;14.88;82.32;100278.47;10440382;28;20033;-80
2023/08/29 01:56:58;;;;;;;0.40;0.40;;;;;;;14.53;83.92;100279.44;10429813;28;20063;-79
2023/08/29 02:02:02;;;;;;;0.50;0.50;;;;;;;14.76;82.77;100283.81;10420585;28;20096;-79
2023/08/29 02:07:04;;;;;;;0.77;0.77;;;;;;;14.78;82.13;100271.28;10415339;28;20061;-80
2023/08/29 02:12:07;;;;;;;1.52;0.70;;;;;;;14.97;81.66;100273.81;10426483;28;20052;-80
2023/08/29 02:17:09;;;;;;;0.70;0.60;;;;;;;14.88;81.70;100274.91;10420802;28;20072;-79
2023/08/29 02:22:12;;;;;;;0.60;0.57;;;;;;;14.34;84.56;100285.13;10413631;28;20532;-81
2023/08/29 02:27:14;;;;;;;0.93;0.65;;;;;;;14.47;84.09;100290.63;10438206;28;20044;-82
2023/08/29 02:32:17;;;;;;;0.75;0.70;;;;;;;14.29;84.63;100293.56;10437329;28;20049;-80
2023/08/29 02:37:20;;;;;;;1.17;0.65;;;;;;;14.35;83.75;100292.28;10403967;28;20041;-81
2023/08/29 02:42:22;;;;;;;0.80;0.60;;;;;;;14.27;84.95;100291.13;10441590;28;20544;-79
2023/08/29 02:47:24;;;;;;;0.82;0.70;;;;;;;14.30;84.63;100301.53;10400443;28;20041;-79
2023/08/29 02:52:26;;;;;;;1.00;0.70;;;;;;;14.08;85.42;100305.09;10425429;28;20422;-80
2023/08/29 02:57:29;;;;;;;0.70;0.60;;;;;;;14.05;86.36;100307.66;10416355;28;20053;-79
2023/08/29 03:02:32;;;;;;;0.60;0.50;;;;;;;14.20;85.59;100310.03;10402449;28;20049;-82
2023/08/29 03:07:34;;;;;;;0.73;0.63;;;;;;;14.14;86.00;100309.34;10412030;28;20045;-81
2023/08/29 03:12:38;;;;;;;0.60;0.50;;;;;;;14.11;85.85;100321.03;10436757;28;20044;-82
2023/08/29 03:17:43;;;;;;;1.23;0.50;;;;;;;14.07;85.74;100333.00;10421143;28;20639;-80
2023/08/29 03:22:46;;;;;;;1.35;0.90;;;;;;;14.48;85.34;100332.84;10416072;28;20042;-79
2023/08/29 03:27:48;;;;;;;0.80;0.80;;;;;;;15.14;81.41;100330.28;10434968;28;20044;-81
2023/08/29 03:32:51;;;;;;;1.83;0.60;;;;;;;15.73;79.51;100330.78;10426883;28;20042;-81
2023/08/29 03:37:54;;;;;;;0.60;0.60;;;;;;;16.58;75.40;100341.03;10403509;28;20049;-79
2023/08/29 03:43:00;;;;;;;0.68;0.50;;;;;;;16.85;73.86;100336.31;10413786;28;20069;-89
2023/08/29 03:48:02;;;;;;;1.10;0.77;;;;;;;17.25;71.53;100330.44;10391040;28;20053;-81
2023/08/29 03:53:08;;;;;;;1.50;0.85;;;;;;;16.94;72.06;100342.63;10413056;28;20037;-83
2023/08/29 03:58:11;;;;;;;0.88;0.75;;;;;;;17.61;69.71;100341.81;10441482;28;20045;-80
2023/08/29 04:03:13;;;;;;;1.00;0.63;;;;;;;17.87;69.02;100336.13;10412253;28;20054;-82
2023/08/29 04:08:15;;;;;;;2.28;0.80;;;;;;;18.55;66.75;100347.00;10385483;28;20040;-82
2023/08/29 04:13:17;;;;;;;1.38;0.88;;;;;;;19.12;65.59;100357.38;10415823;28;20041;-82
2023/08/29 04:18:20;;;;;;;1.58;0.80;;;;;;;16.31;73.84;100358.00;10439773;28;20431;-80
2023/08/29 04:23:23;;;;;;;0.70;0.68;;;;;;;15.53;77.61;100359.84;10399265;28;20395;-82
2023/08/29 04:28:25;;;;;;;1.00;0.55;;;;;;;15.55;78.25;100352.03;10402232;28;20048;-82
2023/08/29 04:33:28;;;;;;;1.80;0.85;;;;;;;15.58;78.43;100354.16;10417383;28;20053;-81
2023/08/29 04:38:31;;;;;;;0.70;0.70;;;;;;;17.45;71.96;100357.41;10441707;28;20045;-81
2023/08/29 04:43:33;;;;;;;1.05;0.70;;;;;;;18.07;69.64;100365.06;10426206;28;20049;-83
2023/08/29 04:48:36;;;;;;;0.70;0.70;;;;;;;18.21;67.78;100367.56;10419924;28;20503;-81
2023/08/29 04:53:38;;;;;;;0.75;0.70;;;;;;;18.51;67.07;100382.19;10398752;28;20446;-82
2023/08/29 04:58:41;;;;;;;2.30;0.95;;;;;;;19.56;64.72;100384.34;10437107;28;20049;-83
2023/08/29 05:03:43;;;;;;;2.25;0.88;;;;;;;21.77;58.04;100387.03;10442815;28;20053;-82
2023/08/29 05:08:48;;;;;;;1.05;0.90;;;;;;;21.24;58.87;100389.28;10407642;28;20056;-82
2023/08/29 05:13:51;;;;;;;0.55;0.55;;;;;;;21.23;57.92;100373.72;10399719;28;20049;-81
2023/08/29 05:18:54;;;;;;;1.58;0.80;;;;;;;21.19;59.09;100370.84;10414343;28;20046;-82
2023/08/29 05:23:57;;;;;;;1.00;0.90;;;;;;;22.20;56.09;100369.28;10418497;28;20061;-80
2023/08/29 05:29:00;;;;;;;1.83;0.80;;;;;;;22.35;55.40;100378.78;10440114;28;20068;-80
2023/08/29 05:34:03;;;;;;;2.42;1.00;;;;;;;22.38;55.63;100373.25;10440668;28;20033;-81
2023/08/29 05:39:09;;;;;;;1.00;0.93;;;;;;;22.56;54.71;100374.47;10421804;28;20136;-81
2023/08/29 05:44:45;;;;;;;1.33;0.90;;;;;;;22.18;55.73;100371.63;10432487;28;20056;-80
2023/08/29 05:49:48;;;;;;;1.55;0.77;;;;;;;22.23;55.38;100383.34;10401496;28;20462;-81
2023/08/29 05:54:51;;;;;;;0.77;0.77;;;;;;;22.96;54.16;100389.25;10436440;28;20045;-81
2023/08/29 05:59:53;;;;;;;3.58;1.15;;;;;;;23.08;53.04;100391.84;10416580;28;20048;-81
2023/08/29 06:04:56;;;;;;;1.88;1.00;;;;;;;22.38;54.25;100397.63;10435541;28;20082;-87
2023/08/29 06:09:59;;;;;;;1.58;1.10;;;;;;;22.95;53.67;100408.03;10407689;28;20072;-81
2023/08/29 06:15:02;;;;;;;1.17;1.05;;;;;;;22.58;54.24;100404.06;10426035;28;20116;-81
2023/08/29 06:20:07;;;;;;;2.97;1.00;;;;;;;20.99;58.57;100417.31;10426558;28;20042;-79
2023/08/29 06:25:11;;;;;;;1.20;1.00;;;;;;;19.88;61.65;100417.97;10423351;28;20041;-81
2023/08/29 06:30:14;;;;;;;1.95;1.13;;;;;;;20.00;62.33;100415.19;10441273;28;20037;-85
2023/08/29 06:35:17;;;;;;;0.75;0.75;;;;;;;22.01;56.29;100416.72;10420452;28;20037;-81
2023/08/29 06:40:19;;;;;;;2.08;1.00;;;;;;;20.48;60.47;100424.66;10439503;28;20060;-81
2023/08/29 06:45:22;;;;;;;1.60;0.85;;;;;;;21.15;58.30;100431.28;10444673;28;20045;-80
2023/08/29 06:50:24;;;;;;;1.67;1.15;;;;;;;21.36;58.08;100443.09;10426891;28;20526;-80
2023/08/29 06:55:27;;;;;;;1.60;1.02;;;;;;;20.45;61.64;100447.63;10442501;28;20502;-80
2023/08/29 07:00:33;;;;;;;2.90;1.13;;;;;;;19.77;62.72;100461.34;10427025;28;20048;-82
2023/08/29 07:05:35;;;;;;;0.80;0.80;;;;;;;19.40;63.98;100466.03;10435719;28;20045;-82
2023/08/29 07:10:37;;;;;;;2.38;0.88;;;;;;;18.95;66.12;100467.66;10400452;28;20061;-81
2023/08/29 07:15:40;;;;;;;1.27;1.17;;;;;;;21.00;60.71;100465.56;10369069;28;20411;-79
2023/08/29 07:20:42;;;;;;;1.25;0.82;;;;;;;20.98;60.58;100462.31;10375692;28;20499;-80
2023/08/29 07:25:45;;;;;;;0.88;0.80;;;;;;;19.90;62.70;100467.75;10384903;28;20053;-81
2023/08/29 07:30:51;;;;;;;1.65;1.10;;;;;;;22.85;55.96;100464.56;10401483;28;20440;-80
2023/08/29 07:35:54;;;;;;;1.63;0.80;;;;;;;24.67;50.20;100476.13;10417664;28;20038;-80
2023/08/29 07:40:57;;;;;;;2.58;0.95;;;;;;;24.49;50.29;100471.09;10417393;28;20053;-82
2023/08/29 07:45:59;;;;;;;2.38;0.80;;;;;;;24.41;50.31;100457.31;10412699;28;20049;-81
2023/08/29 07:51:03;;;;;;;1.40;0.80;;;;;;;26.50;45.23;100443.78;10440676;28;20049;-80
2023/08/29 07:56:05;;;;;;;1.00;0.90;;;;;;;26.61;44.55;100459.53;10441659;28;20048;-82
2023/08/29 08:01:07;;;;;;;1.40;0.90;;;;;;;27.14;43.71;100464.59;10442971;28;20053;-80
2023/08/29 08:06:11;;;;;;;0.90;0.75;;;;;;;26.84;43.72;100473.31;10413424;28;20080;-81
2023/08/29 08:11:13;;;;;;;1.88;0.90;;;;;;;27.18;43.35;100465.41;10432028;28;20048;-80
2023/08/29 08:16:15;;;;;;;1.20;1.00;;;;;;;26.82;43.69;100460.81;10440921;28;20426;-83
2023/08/29 08:21:18;;;;;;;2.40;1.00;;;;;;;24.43;48.33;100481.00;10423475;28;20132;-80
2023/08/29 08:26:21;;;;;;;1.52;0.77;;;;;;;23.97;49.91;100495.09;10450095;28;20049;-81
2023/08/29 08:31:23;;;;;;;2.47;0.85;;;;;;;23.88;49.57;100499.34;10432900;28;20045;-79
2023/08/29 08:36:26;;;;;;;0.85;0.80;;;;;;;24.43;48.33;100500.63;10449667;28;20045;-80
2023/08/29 08:41:31;;;;;;;1.90;1.20;;;;;;;24.78;47.34;100497.50;10449489;28;20121;-83
2023/08/29 08:46:35;;;;;;;1.38;0.80;;;;;;;24.90;47.27;100483.25;10449562;28;20045;-81
2023/08/29 08:51:37;;;;;;;1.38;0.80;;;;;;;24.22;48.28;100494.69;10433589;28;20052;-82
2023/08/29 08:56:41;;;;;;;2.03;0.80;;;;;;;25.97;45.15;100498.44;10436743;28;20044;-81
2023/08/29 09:01:43;;;;;;;1.20;0.95;;;;;;;24.40;46.88;100507.00;10448202;28;20052;-81
2023/08/29 09:06:45;;;;;;;1.92;1.00;;;;;;;24.82;47.40;100509.63;10449473;28;20056;-82
2023/08/29 09:11:55;;;;;;;0.80;0.80;;;;;;;24.67;46.07;100516.22;10448056;28;20041;-83
2023/08/29 09:16:59;;;;;;;2.20;0.70;;;;;;;24.65;46.48;100524.22;10431020;28;20037;-84
2023/08/29 09:22:02;;;;;;;1.65;0.80;;;;;;;24.07;47.85;100527.28;10447218;28;20037;-81
2023/08/29 09:27:08;;;;;;;1.90;0.93;;;;;;;22.21;51.29;100527.41;10446369;28;20498;-81
2023/08/29 09:32:15;;;;;;;0.93;0.75;;;;;;;21.64;52.75;100537.94;10429867;28;20052;-81
2023/08/29 09:37:18;;;;;;;;;;;;;;;21.49;53.54;100540.69;10405876;28;20045;-83
2023/08/29 09:42:22;;;;;;;2.90;0.73;;;;;;;21.19;53.08;100543.84;10409610;28;19929;-81
2023/08/29 09:47:24;;;;;;;1.20;0.70;;;;;;;20.81;53.85;100540.69;10404738;28;20042;-82
2023/08/29 09:52:27;;;;;;;2.15;0.80;;;;;;;20.98;53.57;100538.44;10404340;28;20049;-81
2023/08/29 09:57:33;;;;;;;1.40;0.68;;;;;;;21.03;53.06;100534.63;10403988;28;20503;-82
2023/08/29 10:02:37;;;;;;;1.63;1.02;;;;;;;21.07;54.16;100530.75;10404853;28;20038;-81
2023/08/29 10:07:45;;;;;;;0.82;0.70;;;;;;;21.21;54.47;100529.53;10407544;28;20132;-82
2023/08/29 10:27:18;;;;;;;1.65;0.82;;;;;;;21.13;51.97;100534.09;10597966;27;20779;-73
2023/08/29 10:32:23;;;;;;;1.33;0.82;;;;;;;21.20;52.02;100536.28;10591168;28;20085;-73
2023/08/29 10:37:28;;;;;;;2.50;1.02;;;;;;;21.27;52.62;100540.13;10602091;28;20043;-73
2023/08/29 10:42:48;;;;;;;0.80;0.60;;;;;;;21.38;51.83;100543.22;10593199;28;20085;-73
2023/08/29 10:47:52;;;;;;;1.70;1.08;;;;;;;21.18;52.82;100552.59;10598979;28;20625;-73
2023/08/29 10:53:00;;;;;;;1.02;0.80;;;;;;;20.96;52.45;100545.53;10598974;28;20379;-73
2023/08/29 10:58:49;;;;;;;1.48;0.60;;;;;;;20.96;52.76;100553.91;10581567;28;20063;-72
2023/08/29 11:03:51;;;;;;;0.77;0.75;;;;;;;21.13;52.56;100548.03;10563191;28;20537;-77
2023/08/29 11:09:16;;;;;;;2.65;0.85;;;;;;;21.33;51.29;100549.03;10599288;28;20500;-76
2023/08/29 11:14:19;;;;;;;1.10;0.85;;;;;;;21.42;51.67;100557.28;10583349;28;20040;-75
2023/08/29 11:19:22;;;;;;;0.90;0.80;;;;;;;21.74;50.89;100539.41;10591945;28;20513;-72
2023/08/29 11:24:25;;;;;;;0.77;0.77;;;;;;;21.71;51.64;100542.91;10579934;28;20074;-76
2023/08/29 11:29:35;;;;;;;2.55;0.85;;;;;;;21.73;50.97;100540.56;10525707;28;20041;-76
2023/08/29 11:34:38;;;;;;;1.38;0.70;;;;;;;21.71;50.67;100545.72;10547725;28;20051;-77
2023/08/29 11:39:51;;;;;;;0.98;0.75;;;;;;;21.53;52.51;100541.63;10545882;28;20039;-77
2023/08/29 11:44:54;;;;;;;1.00;0.90;;;;;;;21.34;53.35;100543.09;10536778;28;20052;-75
2023/08/29 11:49:56;;;;;;;1.25;1.00;;;;;;;21.31;54.24;100549.41;10550311;28;20040;-75
2023/08/29 11:55:04;;;;;;;0.90;0.90;;;;;;;21.52;53.25;100540.81;10506686;28;20040;-75
2023/08/29 12:00:08;;;;;;;1.52;1.00;;;;;;;21.46;53.75;100549.78;10542476;28;20043;-76
2023/08/29 12:05:12;;;;;;;0.88;0.82;;;;;;;21.69;52.98;100539.66;10542537;28;20036;-75
2023/08/29 12:10:16;;;;;;;1.20;1.10;;;;;;;21.46;53.70;100549.78;10519566;28;20501;-75
2023/08/29 12:15:18;;;;;;;2.53;1.08;;;;;;;21.43;53.68;100553.31;10544053;28;20044;-75
2023/08/29 12:20:20;;;;;;;1.27;1.00;;;;;;;21.39;54.73;100552.41;10546058;28;20568;-75
2023/08/29 12:25:24;;;;;;;1.73;0.93;;;;;;;21.34;53.99;100551.47;10558908;28;20067;-76
2023/08/29 12:30:28;;;;;;;1.00;0.90;;;;;;;21.39;53.61;100557.97;10557864;28;20043;-77
2023/08/29 12:35:30;;;;;;;1.23;1.00;;;;;;;21.41;53.32;100559.25;10526365;28;20063;-75
2023/08/29 12:40:32;;;;;;;0.60;0.60;;;;;;;21.34;53.58;100556.25;10561004;28;20048;-75
2023/08/29 12:45:35;;;;;;;1.52;1.00;;;;;;;21.22;53.16;100553.50;10532821;28;20040;-75
2023/08/29 12:50:38;;;;;;;1.45;1.10;;;;;;;21.12;54.40;100560.38;10521902;28;20032;-74
2023/08/29 12:55:40;;;;;;;1.20;1.10;;;;;;;21.11;54.56;100553.16;10534620;28;20501;-74
2023/08/29 13:00:42;;;;;;;1.25;1.00;;;;;;;21.07;54.89;100553.06;10537249;28;20036;-75
2023/08/29 13:05:44;;;;;;;4.18;1.00;;;;;;;20.77;55.98;100549.78;10531261;28;20497;-74
2023/08/29 13:10:46;;;;;;;1.58;0.93;;;;;;;20.71;55.65;100565.13;10544142;28;20043;-80
2023/08/29 13:15:49;;;;;;;1.88;0.77;;;;;;;20.82;56.28;100562.66;10535415;28;20036;-74
2023/08/29 13:20:51;;;;;;;2.70;0.80;;;;;;;20.77;56.25;100560.94;10530715;28;20509;-74
2023/08/29 13:25:53;;;;;;;0.80;0.80;;;;;;;20.83;56.05;100567.09;10529318;28;20053;-74
2023/08/29 13:30:59;;;;;;;1.00;0.80;;;;;;;20.69;56.76;100564.69;10532136;28;20043;-74
2023/08/29 13:36:01;;;;;;;2.80;0.80;;;;;;;20.34;58.79;100571.88;10505178;28;20044;-75
2023/08/29 13:41:07;;;;;;;1.20;0.90;;;;;;;20.33;59.38;100564.69;10533706;28;20039;-75
2023/08/29 13:46:09;;;;;;;1.63;1.10;;;;;;;20.41;59.41;100574.91;10528498;28;20041;-75
2023/08/29 13:51:11;;;;;;;1.48;1.00;;;;;;;20.47;58.96;100573.50;10556516;28;20040;-76
2023/08/29 13:56:13;;;;;;;1.65;0.98;;;;;;;20.47;60.13;100568.75;10556938;28;20040;-75
2023/08/29 14:01:15;;;;;;;1.48;1.20;;;;;;;20.31;60.69;100576.19;10569097;28;20532;-75
2023/08/29 14:06:17;;;;;;;1.17;1.08;;;;;;;20.20;61.38;100580.59;10529043;28;20047;-77
2023/08/29 14:11:20;;;;;;;1.20;1.10;;;;;;;20.06;61.53;100586.47;10557453;28;20051;-75
2023/08/29 14:16:22;;;;;;;1.17;1.00;;;;;;;20.06;62.30;100580.09;10533324;28;20043;-75
2023/08/29 14:21:24;;;;;;;1.80;1.10;;;;;;;20.06;61.87;100580.09;10551179;28;20040;-75
2023/08/29 14:26:26;;;;;;;1.30;1.20;;;;;;;20.00;62.73;100571.16;10557010;28;20051;-75
2023/08/29 14:31:29;;;;;;;1.10;1.00;;;;;;;20.09;62.72;100576.63;10534408;28;20058;-72
2023/08/29 14:36:31;;;;;;;1.63;1.40;;;;;;;19.96;63.17;100580.53;10553562;28;20043;-72
2023/08/29 14:41:33;;;;;;;2.45;1.33;;;;;;;19.70;64.06;100578.06;10518017;28;20040;-74
2023/08/29 14:46:36;;;;;;;3.33;1.50;;;;;;;19.47;64.44;100575.66;10559339;28;20043;-73
2023/08/29 14:51:38;;;;;;;1.58;1.20;;;;;;;19.45;65.49;100577.16;10540766;28;20048;-73
2023/08/29 14:56:41;;;;;;;2.22;1.27;;;;;;;19.39;65.33;100584.88;10522490;28;20044;-74
2023/08/29 15:01:44;;;;;;;2.83;1.20;;;;;;;19.67;65.08;100584.31;10542447;28;20044;-74
2023/08/29 15:06:46;;;;;;;1.35;1.25;;;;;;;19.57;63.85;100583.59;10545319;28;20035;-73
2023/08/29 15:11:48;;;;;;;2.13;1.00;;;;;;;19.41;62.64;100584.53;10560756;28;20521;-73
2023/08/29 15:16:51;;;;;;;1.02;0.80;;;;;;;19.22;60.94;100585.03;10562063;28;20056;-73
2023/08/29 15:21:54;;;;;;;1.10;0.85;;;;;;;19.24;61.66;100579.94;10563381;28;20032;-73
2023/08/29 15:26:56;;;;;;;1.17;0.90;;;;;;;19.37;60.61;100584.41;10582268;28;20444;-73
2023/08/29 15:32:01;;;;;;;1.38;1.10;;;;;;;19.27;61.22;100585.66;10615796;28;20051;-73
2023/08/29 15:37:04;;;;;;;1.10;0.80;;;;;;;19.01;62.25;100581.47;10579887;28;20060;-72
2023/08/29 15:42:06;;;;;;;2.20;0.90;;;;;;;19.16;62.44;100583.63;10540962;28;20033;-72
2023/08/29 15:47:09;;;;;;;1.83;1.13;;;;;;;19.18;62.22;100584.09;10550801;28;20357;-74
2023/08/29 15:52:11;;;;;;;2.25;0.93;;;;;;;19.12;62.68;100582.69;10563526;28;20050;-72
2023/08/29 15:57:14;;;;;;;1.33;1.02;;;;;;;19.13;63.51;100579.56;10549823;28;21656;-87
2023/08/29 16:02:16;;;;;;;2.78;0.98;;;;;;;18.98;63.28;100585.72;10542538;28;20664;-91
2023/08/29 16:07:19;;;;;;;1.20;0.90;;;;;;;18.91;64.29;100585.44;10538290;28;20040;-94
2023/08/29 16:12:21;;;;;;;5.40;0.95;;;;;;;19.03;63.60;100587.50;10546455;28;20062;-73
2023/08/29 16:17:24;;;;;;;1.75;1.17;;;;;;;18.78;64.49;100590.13;10542471;28;20059;-73
2023/08/29 16:22:27;;;;;;;3.00;1.10;;;;;;;18.67;64.60;100591.66;10559044;28;20044;-73
2023/08/29 16:27:32;;;;;;;2.13;1.17;;;;;;;18.38;64.91;100598.81;10561716;28;20035;-73
2023/08/29 16:32:35;;;;;;;3.15;1.30;;;;;;;18.43;65.97;100600.63;10539909;28;20075;-73
2023/08/29 16:37:37;;;;;;;2.85;1.13;;;;;;;18.49;65.45;100595.66;10538598;28;20541;-73
2023/08/29 16:42:47;;;;;;;1.45;1.02;;;;;;;18.49;65.25;100604.81;10558577;28;20056;-73
2023/08/29 16:47:50;;;;;;;1.00;1.00;;;;;;;18.50;65.94;100597.28;10490797;28;20043;-72
2023/08/29 16:52:53;;;;;;;3.28;1.40;;;;;;;18.46;66.14;100607.47;10541687;28;20044;-72
2023/08/29 16:57:55;;;;;;;1.02;1.00;;;;;;;18.44;66.71;100602.25;10550741;28;20049;-72
2023/08/29 17:02:58;;;;;;;1.17;1.08;;;;;;;18.38;66.90;100607.16;10538882;28;20517;-73
2023/08/29 17:08:04;;;;;;;2.83;1.30;;;;;;;18.36;66.69;100609.44;10540444;28;20040;-73
2023/08/29 17:13:08;;;;;;;2.20;1.27;;;;;;;18.28;67.66;100615.88;10493424;28;20032;-73
2023/08/29 17:18:10;;;;;;;2.40;1.27;;;;;;;18.44;67.23;100620.88;10539016;28;20387;-72
2023/08/29 17:23:13;;;;;;;2.33;1.60;;;;;;;18.53;67.74;100624.41;10535840;28;20048;-72
2023/08/29 17:28:15;;;;;;;2.05;1.40;;;;;;;18.51;67.12;100632.28;10536650;28;20059;-73
2023/08/29 17:33:19;;;;;;;1.95;1.75;;;;;;;18.42;67.46;100643.44;10535009;28;20032;-73
2023/08/29 17:38:21;;;;;;;4.95;2.50;;;;;;;18.29;68.37;100658.34;10541387;28;20044;-72
2023/08/29 17:43:23;;;;;;;4.57;2.58;;;;;;;18.25;68.69;100652.66;10560176;28;20047;-72
2023/08/29 17:48:25;;;;;;;5.43;2.42;;;;;;;18.29;68.96;100650.84;10542182;28;20581;-72
2023/08/29 17:53:28;;;;;;;3.50;2.80;;;;;;;18.28;68.71;100653.94;10550871;28;20041;-72
2023/08/29 17:58:31;;;;;;;6.25;2.70;;;;;;;18.23;69.06;100657.75;10562792;28;20142;-72
2023/08/29 18:03:34;;;;;;;4.53;3.20;;;;;;;18.16;68.90;100660.19;10549060;28;20044;-73
2023/08/29 18:08:36;;;;;;;4.38;2.25;;;;;;;18.38;68.23;100671.06;10550077;28;20043;-72
2023/08/29 18:13:38;;;;;;;4.50;2.33;;;;;;;18.51;68.14;100673.94;10550594;28;20052;-77
2023/08/29 18:18:41;;;;;;;4.50;2.30;;;;;;;18.64;67.11;100670.16;10525841;28;20045;-81
2023/08/29 18:23:43;;;;;;;2.63;2.30;;;;;;;18.44;67.68;100673.66;10518504;28;20048;-75
2023/08/29 18:28:45;;;;;;;4.60;2.15;;;;;;;18.62;67.35;100672.44;10531310;28;20043;-74
2023/08/29 18:33:54;;;;;;;3.55;2.40;;;;;;;18.64;67.27;100676.53;10536938;28;20051;-75
2023/08/29 18:38:58;;;;;;;3.63;2.13;;;;;;;18.49;68.32;100679.03;10554314;28;20048;-74
2023/08/29 18:44:02;;;;;;;3.20;2.15;;;;;;;18.46;67.62;100674.16;10548359;28;20041;-74
2023/08/29 18:49:05;;;;;;;2.45;2.00;;;;;;;18.49;67.72;100665.13;10534066;28;20041;-73
2023/08/29 18:54:07;;;;;;;3.53;2.05;;;;;;;18.74;66.85;100669.78;10536671;28;20048;-73
2023/08/29 18:59:09;;;;;;;3.60;1.80;;;;;;;18.82;66.01;100676.44;10551563;28;20071;-74
2023/08/29 19:04:13;;;;;;;1.98;1.80;;;;;;;18.78;66.11;100667.97;10554008;28;20079;-74
2023/08/29 19:09:15;;;;;;;2.35;1.70;;;;;;;18.71;66.00;100670.44;10517492;28;20410;-73
2023/08/29 19:14:17;;;;;;;2.83;1.83;;;;;;;18.66;65.82;100665.91;10520518;28;20396;-74
2023/08/29 19:19:20;;;;;;;2.45;2.13;;;;;;;18.43;66.74;100670.06;10499446;28;20438;-73
2023/08/29 19:24:23;;;;;;;3.72;2.17;;;;;;;18.46;66.80;100661.06;10549584;28;20040;-73
2023/08/29 19:29:25;;;;;;;3.42;2.58;;;;;;;18.46;66.94;100668.59;10560628;28;20036;-73
2023/08/29 19:34:29;;;;;;;4.28;2.50;;;;;;;18.56;66.55;100660.69;10560734;28;20424;-74
2023/08/29 19:39:32;;;;;;;3.70;2.63;;;;;;;18.59;67.03;100662.81;10565985;28;20036;-74
2023/08/29 19:44:39;;;;;;;3.25;2.35;;;;;;;18.59;66.90;100659.22;10533350;28;20410;-75
2023/08/29 19:49:46;;;;;;;3.42;2.38;;;;;;;18.70;66.79;100662.44;10549569;28;20040;-82
2023/08/29 19:54:48;;;;;;;4.35;2.50;;;;;;;18.67;66.30;100666.72;10542043;28;20047;-80
2023/08/29 19:59:51;;;;;;;7.13;2.35;;;;;;;18.72;66.69;100672.06;10556967;28;20048;-78
2023/08/29 20:04:53;;;;;;;4.05;2.30;;;;;;;18.62;66.20;100678.81;10543115;28;20506;-74
2023/08/29 20:09:56;;;;;;;3.13;2.33;;;;;;;18.61;67.36;100681.94;10560084;28;20075;-75
2023/08/29 20:14:58;;;;;;;6.55;3.22;;;;;;;18.33;67.80;100673.22;10525946;28;20044;-75
2023/08/29 20:20:01;;;;;;;7.57;3.30;;;;;;;18.16;68.79;100681.59;10541581;28;20060;-72
2023/08/29 20:25:08;;;;;;;7.88;4.25;;;;;;;17.83;70.10;100689.66;10538873;28;20097;-74
2023/08/29 20:30:11;;;;;;;7.68;3.78;;;;;;;17.46;70.50;100692.75;10540748;28;20040;-75
2023/08/29 20:35:14;;;;;;;8.93;4.00;;;;;;;17.39;71.61;100686.06;10556915;28;20040;-74
2023/08/29 20:40:17;;;;;;;5.85;3.53;;;;;;;17.33;71.68;100685.41;10549639;28;20055;-73
2023/08/29 20:45:19;;;;;;;8.65;3.80;;;;;;;17.26;71.70;100687.03;10558594;28;20555;-78
2023/08/29 20:50:24;;;;;;;5.50;2.83;;;;;;;17.11;72.36;100702.19;10534726;28;20047;-77
2023/08/29 20:55:32;;;;;;;5.07;3.08;;;;;;;17.28;72.68;100698.63;10561252;28;20043;-77
2023/08/29 21:00:34;;;;;;;5.75;2.65;;;;;;;17.48;71.75;100703.53;10544465;28;20043;-76
2023/08/29 21:05:42;;;;;;;3.28;2.38;;;;;;;17.86;69.85;100706.47;10556715;28;20502;-77
2023/08/29 21:10:44;;;;;;;4.80;2.70;;;;;;;17.94;69.99;100708.44;10551788;28;20058;-77
2023/08/29 21:15:47;;;;;;;3.22;2.72;;;;;;;18.23;69.11;100702.19;10560682;28;20040;-77
2023/08/29 21:20:55;;;;;;;4.43;3.03;;;;;;;18.05;69.24;100704.19;10554829;28;20395;-79
2023/08/29 21:25:57;;;;;;;;;;;;;;;18.08;69.14;100706.28;10554977;28;20056;-72
2023/08/29 21:43:24;;;;;;;5.97;3.30;;;;;;;17.44;71.09;100713.66;10517814;27;20667;-74
2023/08/29 21:48:29;;;;;;;5.75;3.33;;;;;;;17.01;72.10;100700.53;10509516;28;20521;-73
2023/08/29 21:53:31;;;;;;;7.32;3.58;;;;;;;16.93;72.55;100706.88;10489813;28;20036;-73
2023/08/29 21:58:33;;;;;;;5.18;3.97;;;;;;;17.39;71.71;100709.09;10479327;28;20037;-75
2023/08/29 22:03:35;;;;;;;7.22;3.20;;;;;;;17.52;71.32;100717.56;10507992;28;20042;-69
2023/08/29 22:08:37;;;;;;;7.15;3.80;;;;;;;17.71;70.37;100712.56;10473907;28;20052;-69
2023/08/29 22:13:39;;;;;;;7.00;4.30;;;;;;;17.37;70.81;100718.88;10461240;28;20533;-69
2023/08/29 22:18:42;;;;;;;10.05;4.30;;;;;;;17.03;71.77;100720.44;10476342;28;20065;-69
2023/08/29 22:23:44;;;;;;;6.60;4.03;;;;;;;16.83;72.60;100723.78;10480116;28;20048;-69
2023/08/29 22:28:46;;;;;;;9.02;4.45;;;;;;;16.89;72.93;100728.06;10484520;28;20045;-68
2023/08/29 22:33:48;;;;;;;7.88;4.07;;;;;;;17.04;72.71;100722.06;10484952;28;20037;-68
2023/08/29 22:38:50;;;;;;;11.20;5.05;;;;;;;17.10;71.81;100718.00;10466912;28;20041;-69
2023/08/29 22:43:53;;;;;;;9.18;4.60;;;;;;;16.76;72.58;100723.44;10466320;28;20037;-72
2023/08/29 22:48:55;;;;;;;9.77;4.65;;;;;;;16.55;73.67;100715.69;10450420;28;20041;-73
2023/08/29 22:53:58;;;;;;;8.68;4.35;;;;;;;16.47;73.85;100710.09;10446411;28;20045;-69
2023/08/29 22:59:01;;;;;;;7.63;3.95;;;;;;;16.47;74.03;100704.53;10453538;28;20038;-70
2023/08/29 23:04:03;;;;;;;7.50;3.88;;;;;;;16.47;74.48;100710.91;10476626;28;20601;-70
2023/08/29 23:09:05;;;;;;;8.57;4.43;;;;;;;17.09;72.24;100705.28;10434206;28;20041;-69
2023/08/29 23:14:08;;;;;;;5.82;3.67;;;;;;;17.18;71.43;100720.00;10437601;28;20037;-69
2023/08/29 23:19:11;;;;;;;7.68;4.57;;;;;;;17.21;71.40;100717.72;10426480;28;20052;-69
2023/08/29 23:24:13;;;;;;;7.72;4.72;;;;;;;17.20;71.00;100711.34;10418786;28;20042;-69
2023/08/29 23:29:15;;;;;;;10.15;4.70;;;;;;;17.05;71.46;100717.34;10423079;28;20041;-69
2023/08/29 23:34:18;;;;;;;7.80;4.93;;;;;;;17.11;72.25;100702.19;10445067;28;20034;-69
2023/08/29 23:39:21;;;;;;;9.73;5.10;;;;;;;16.90;72.01;100713.06;10445884;28;20037;-69